createdAt,value
2022-12-15T00:02:19.954Z,59.73
2022-12-15T00:05:05.629Z,55.20
2022-12-15T00:07:51.575Z,55.93
2022-12-15T00:10:36.976Z,50.77
2022-12-15T00:13:22.521Z,50.27
2022-12-15T00:16:08.069Z,51.07
2022-12-15T00:18:54.956Z,48.73
2022-12-15T00:21:40.841Z,47.03
2022-12-15T00:24:26.313Z,47.70
2022-12-15T00:27:12.102Z,47.10
2022-12-15T00:29:57.521Z,48.83
2022-12-15T00:32:42.928Z,48.70
2022-12-15T00:35:29.926Z,51.93
2022-12-15T00:38:16.060Z,52.33
2022-12-15T00:40:44.431Z,53.37
2022-12-15T00:43:12.680Z,54.57
2022-12-15T00:45:58.943Z,56.03
2022-12-15T00:48:27.180Z,60.40
2022-12-15T00:50:55.785Z,60.00
2022-12-15T00:53:41.911Z,61.27
2022-12-15T00:56:27.994Z,56.73
2022-12-15T00:59:13.603Z,58.43
2022-12-15T01:01:59.476Z,56.07
2022-12-15T01:04:45.490Z,56.47
2022-12-15T01:07:32.387Z,57.60
2022-12-15T01:10:17.942Z,52.97
2022-12-15T01:13:03.633Z,52.53
2022-12-15T01:15:49.339Z,53.77
2022-12-15T01:18:34.810Z,51.40
2022-12-15T01:21:05.095Z,47.53
2022-12-15T01:23:34.688Z,48.83
2022-12-15T01:26:03.234Z,47.60
2022-12-15T01:28:31.555Z,45.00
2022-12-15T01:30:59.847Z,46.73
2022-12-15T01:33:28.556Z,46.30
2022-12-15T01:35:58.842Z,45.77
2022-12-15T01:38:27.194Z,46.53
2022-12-15T01:40:58.394Z,46.67
2022-12-15T01:43:28.212Z,46.00
2022-12-15T01:46:04.262Z,46.17
2022-12-15T01:48:36.311Z,45.47
2022-12-15T01:51:13.909Z,48.47
2022-12-15T01:53:44.179Z,48.60
2022-12-15T01:56:14.329Z,48.43
2022-12-15T01:58:44.007Z,48.00
2022-12-15T02:01:12.312Z,48.23
2022-12-15T02:03:40.687Z,49.00
2022-12-15T02:06:09.351Z,51.07
2022-12-15T02:08:37.405Z,52.83
2022-12-15T02:11:24.832Z,53.23
2022-12-15T02:13:57.302Z,52.10
2022-12-15T02:16:27.928Z,52.77
2022-12-15T02:18:59.731Z,51.60
2022-12-15T02:21:30.498Z,48.70
2022-12-15T02:24:19.368Z,53.03
2022-12-15T02:27:12.961Z,52.47
2022-12-15T02:30:21.969Z,52.10
2022-12-15T02:32:55.923Z,54.70
2022-12-15T02:35:27.518Z,53.27
2022-12-15T02:37:55.768Z,52.40
2022-12-15T02:40:24.032Z,53.97
2022-12-15T02:42:53.653Z,54.17
2022-12-15T02:45:25.760Z,53.40
2022-12-15T02:47:56.182Z,54.10
2022-12-15T02:50:31.634Z,54.73
2022-12-15T02:53:04.582Z,54.00
2022-12-15T02:55:37.814Z,55.53
2022-12-15T02:58:08.178Z,53.63
2022-12-15T03:00:40.426Z,54.53
2022-12-15T03:03:08.892Z,55.33
2022-12-15T03:05:37.310Z,54.60
2022-12-15T03:08:05.798Z,54.80
2022-12-15T03:10:34.098Z,54.23
2022-12-15T03:13:03.609Z,51.60
2022-12-15T03:15:35.479Z,52.37
2022-12-15T03:18:05.516Z,53.30
2022-12-15T03:20:33.835Z,54.27
2022-12-15T03:23:02.519Z,58.00
2022-12-15T03:25:30.926Z,58.37
2022-12-15T03:27:59.230Z,64.40
2022-12-15T03:30:27.384Z,60.27
2022-12-15T03:32:55.504Z,59.40
2022-12-15T03:35:25.079Z,55.57
2022-12-15T03:37:53.165Z,60.40
2022-12-15T03:40:21.211Z,60.33
2022-12-15T03:42:49.379Z,58.33
2022-12-15T03:45:18.141Z,56.10
2022-12-15T03:47:46.338Z,58.83
2022-12-15T03:50:15.243Z,57.30
2022-12-15T03:52:44.858Z,56.83
2022-12-15T03:55:13.043Z,55.20
2022-12-15T03:57:42.389Z,58.93
2022-12-15T04:00:12.223Z,57.53
2022-12-15T04:02:40.542Z,60.53
2022-12-15T04:05:09.463Z,60.30
2022-12-15T04:07:38.013Z,60.23
2022-12-15T04:10:08.271Z,61.87
2022-12-15T04:12:39.879Z,59.53
2022-12-15T04:15:09.222Z,61.97
2022-12-15T04:17:37.491Z,63.33
2022-12-15T04:20:12.205Z,61.97
2022-12-15T04:22:40.493Z,62.80
2022-12-15T04:25:28.535Z,61.13
2022-12-15T04:28:13.880Z,65.63
2022-12-15T04:31:02.703Z,66.47
2022-12-15T04:33:48.283Z,63.17
2022-12-15T04:36:34.007Z,64.23
2022-12-15T04:39:19.470Z,63.67
2022-12-15T04:42:06.404Z,61.90
2022-12-15T04:44:51.961Z,62.87
2022-12-15T04:47:37.357Z,59.80
2022-12-15T04:50:23.219Z,62.60
2022-12-15T04:53:08.711Z,61.27
2022-12-15T04:55:54.835Z,59.00
2022-12-15T04:58:41.738Z,58.67
2022-12-15T05:01:27.235Z,59.00
2022-12-15T05:04:12.902Z,58.53
2022-12-15T05:06:58.225Z,60.23
2022-12-15T05:09:43.789Z,55.93
2022-12-15T05:12:29.415Z,56.13
2022-12-15T05:15:16.461Z,59.67
2022-12-15T05:18:02.298Z,59.17
2022-12-15T05:20:49.843Z,60.70
2022-12-15T05:23:35.839Z,62.70
2022-12-15T05:26:21.376Z,62.50
2022-12-15T05:29:06.665Z,59.87
2022-12-15T05:31:52.065Z,59.13
2022-12-15T05:34:21.891Z,61.03
2022-12-15T05:36:50.144Z,61.43
2022-12-15T05:39:18.419Z,60.30
2022-12-15T05:41:46.760Z,62.53
2022-12-15T05:44:15.070Z,55.13
2022-12-15T05:46:44.736Z,55.87
2022-12-15T05:49:14.982Z,56.20
2022-12-15T05:51:43.714Z,54.47
2022-12-15T05:54:12.672Z,53.33
2022-12-15T05:56:40.919Z,57.90
2022-12-15T05:59:09.078Z,57.47
2022-12-15T06:01:37.944Z,55.63
2022-12-15T06:04:09.870Z,54.63
2022-12-15T06:06:38.055Z,54.53
2022-12-15T06:09:06.335Z,54.60
2022-12-15T06:11:34.734Z,53.13
2022-12-15T06:14:02.875Z,56.97
2022-12-15T06:16:31.220Z,52.40
2022-12-15T06:19:00.539Z,55.53
2022-12-15T06:21:31.064Z,52.77
2022-12-15T06:23:59.654Z,53.83
2022-12-15T06:26:28.709Z,56.00
2022-12-15T06:28:58.318Z,56.53
2022-12-15T06:31:26.990Z,53.63
2022-12-15T06:34:01.265Z,55.13
2022-12-15T06:36:31.782Z,56.17
2022-12-15T06:39:00.596Z,56.37
2022-12-15T06:41:30.237Z,53.33
2022-12-15T06:43:58.580Z,56.57
2022-12-15T06:46:27.014Z,54.63
2022-12-15T06:48:55.380Z,55.30
2022-12-15T06:51:23.578Z,55.80
2022-12-15T06:53:54.255Z,50.40
2022-12-15T06:56:28.879Z,53.60
2022-12-15T06:59:00.795Z,49.23
2022-12-15T07:01:29.369Z,51.43
2022-12-15T07:04:00.132Z,50.10
2022-12-15T07:06:29.712Z,52.80
2022-12-15T07:08:59.167Z,52.63
2022-12-15T07:11:27.334Z,52.27
2022-12-15T07:13:55.436Z,53.57
2022-12-15T07:16:24.780Z,49.10
2022-12-15T07:18:52.986Z,49.33
2022-12-15T07:21:21.138Z,51.27
2022-12-15T07:23:57.913Z,48.20
2022-12-15T07:26:27.689Z,45.63
2022-12-15T07:28:56.432Z,48.03
2022-12-15T07:31:24.785Z,48.67
2022-12-15T07:33:54.975Z,50.77
2022-12-15T07:36:23.508Z,48.83
2022-12-15T07:38:51.994Z,50.10
2022-12-15T07:41:20.747Z,49.90
2022-12-15T07:43:50.462Z,55.53
2022-12-15T07:46:18.903Z,48.37
2022-12-15T07:48:50.398Z,45.93
2022-12-15T07:51:20.713Z,46.33
2022-12-15T07:53:49.812Z,45.50
2022-12-15T07:56:18.034Z,45.17
2022-12-15T07:58:46.109Z,45.23
2022-12-15T08:01:15.931Z,45.60
2022-12-15T08:03:45.135Z,45.63
2022-12-15T08:06:14.249Z,46.70
2022-12-15T08:08:42.394Z,45.67
2022-12-15T08:11:11.707Z,47.53
2022-12-15T08:16:29.772Z,44.07
2022-12-15T08:18:58.204Z,45.97
2022-12-15T08:21:26.316Z,44.90
2022-12-15T08:23:55.182Z,43.70
2022-12-15T08:26:28.436Z,43.40
2022-12-15T08:29:11.849Z,43.73
2022-12-15T08:31:47.271Z,44.37
2022-12-15T08:34:15.364Z,38.93
2022-12-15T08:36:43.531Z,41.57
2022-12-15T08:39:11.601Z,43.07
2022-12-15T08:41:41.208Z,43.87
2022-12-15T08:44:09.305Z,40.80
2022-12-15T08:46:37.490Z,42.10
2022-12-15T08:49:06.901Z,41.77
2022-12-15T08:51:34.971Z,41.90
2022-12-15T08:54:03.036Z,42.23
2022-12-15T08:56:31.227Z,43.97
2022-12-15T08:59:00.023Z,41.07
2022-12-15T09:01:28.973Z,42.40
2022-12-15T09:03:57.402Z,44.57
2022-12-15T09:06:28.674Z,43.43
2022-12-15T09:08:57.616Z,44.80
2022-12-15T09:11:25.729Z,41.57
2022-12-15T09:13:53.809Z,42.00
2022-12-15T09:16:22.621Z,34.43
2022-12-15T09:18:52.066Z,37.70
2022-12-15T09:21:22.461Z,37.67
2022-12-15T09:23:52.247Z,34.83
2022-12-15T09:26:21.359Z,36.40
2022-12-15T09:28:50.107Z,32.57
2022-12-15T09:31:20.954Z,36.57
2022-12-15T09:33:49.122Z,33.83
2022-12-15T09:36:17.338Z,34.03
2022-12-15T09:38:45.459Z,36.73
2022-12-15T09:41:21.526Z,37.70
2022-12-15T09:43:53.932Z,39.23
2022-12-15T09:46:27.620Z,40.03
2022-12-15T09:48:55.851Z,41.87
2022-12-15T09:51:27.109Z,39.50
2022-12-15T09:53:56.385Z,39.20
2022-12-15T09:56:32.076Z,38.33
2022-12-15T09:59:04.547Z,35.80
2022-12-15T10:01:33.849Z,38.37
2022-12-15T10:04:03.372Z,38.47
2022-12-15T10:06:33.622Z,39.03
2022-12-15T10:09:03.152Z,38.57
2022-12-15T10:11:42.021Z,99.00
2022-12-15T10:14:16.802Z,43.07
2022-12-15T10:16:52.874Z,33.73
2022-12-15T10:19:23.508Z,32.27
2022-12-15T10:21:51.745Z,35.03
2022-12-15T10:24:44.575Z,30.53
2022-12-15T10:27:19.390Z,28.30
2022-12-15T10:29:51.313Z,30.13
2022-12-15T10:32:20.454Z,29.63
2022-12-15T10:34:49.034Z,29.67
2022-12-15T10:37:20.158Z,30.47
2022-12-15T10:39:50.129Z,29.73
2022-12-15T10:42:21.919Z,30.20
2022-12-15T10:44:50.956Z,29.63
2022-12-15T10:47:21.188Z,29.80
2022-12-15T10:49:49.264Z,28.50
2022-12-15T10:52:22.567Z,29.37
2022-12-15T10:54:51.654Z,35.83
2022-12-15T10:57:23.536Z,34.13
2022-12-15T10:59:52.532Z,32.23
2022-12-15T11:05:22.667Z,28.97
2022-12-15T11:10:53.650Z,31.20
2022-12-15T11:13:23.598Z,30.50
2022-12-15T11:15:53.239Z,32.30
2022-12-15T11:18:30.553Z,31.97
2022-12-15T11:21:02.815Z,30.53
2022-12-15T11:23:39.235Z,31.33
2022-12-15T11:26:17.100Z,28.87
2022-12-15T11:28:49.686Z,31.13
2022-12-15T11:31:20.814Z,31.67
2022-12-15T11:33:49.280Z,33.13
2022-12-15T11:36:22.298Z,35.20
2022-12-15T11:38:52.267Z,34.03
2022-12-15T11:41:32.217Z,34.20
2022-12-15T11:44:24.657Z,34.80
2022-12-15T11:46:57.126Z,36.07
2022-12-15T11:50:10.796Z,33.43
2022-12-15T11:52:49.996Z,37.60
2022-12-15T11:55:29.626Z,34.30
2022-12-15T11:58:21.547Z,34.70
2022-12-15T12:00:53.509Z,35.80
2022-12-15T12:03:27.833Z,33.33
2022-12-15T12:06:08.263Z,33.77
2022-12-15T12:09:00.233Z,35.53
2022-12-15T12:11:29.815Z,36.97
2022-12-15T12:14:11.660Z,36.47
2022-12-15T12:16:43.803Z,37.47
2022-12-15T12:19:12.719Z,37.83
2022-12-15T12:21:42.066Z,37.17
2022-12-15T12:24:13.242Z,39.13
2022-12-15T12:26:43.177Z,37.77
2022-12-15T12:29:15.246Z,36.30
2022-12-15T12:31:51.617Z,38.37
2022-12-15T12:34:23.527Z,36.37
2022-12-15T12:36:51.584Z,36.83
2022-12-15T12:39:21.150Z,35.97
2022-12-15T12:41:51.211Z,37.30
2022-12-15T12:44:23.532Z,35.83
2022-12-15T12:46:54.154Z,35.47
2022-12-15T12:49:26.842Z,36.17
2022-12-15T12:51:55.534Z,34.77
2022-12-15T12:54:41.383Z,36.27
2022-12-15T12:57:37.271Z,35.40
2022-12-15T13:00:22.118Z,37.60
2022-12-15T13:03:16.457Z,37.07
2022-12-15T13:05:45.957Z,37.60
2022-12-15T13:08:50.857Z,39.43
2022-12-15T13:12:00.849Z,39.17
2022-12-15T13:14:35.117Z,37.77
2022-12-15T13:20:17.516Z,39.77
2022-12-15T13:22:45.664Z,37.60
2022-12-15T13:25:38.864Z,36.70
2022-12-15T13:28:25.473Z,38.33
2022-12-15T13:31:13.263Z,37.37
2022-12-15T13:33:46.229Z,37.87
2022-12-15T13:36:50.713Z,36.67
2022-12-15T13:39:55.826Z,37.17
2022-12-15T13:42:52.891Z,30.70
2022-12-15T13:45:51.313Z,37.03
2022-12-15T13:48:28.754Z,38.30
2022-12-15T13:51:17.039Z,37.93
2022-12-15T13:53:51.488Z,37.53
2022-12-15T13:56:27.941Z,32.57
2022-12-15T13:58:59.516Z,32.10
2022-12-15T14:01:32.334Z,37.63
2022-12-15T14:04:05.042Z,36.17
2022-12-15T14:06:36.871Z,34.83
2022-12-15T14:09:07.281Z,36.37
2022-12-15T14:11:53.879Z,31.90
2022-12-15T14:14:24.992Z,35.80
2022-12-15T14:16:57.845Z,35.17
2022-12-15T14:19:26.502Z,32.53
2022-12-15T14:21:55.310Z,33.20
2022-12-15T14:24:38.615Z,32.40
2022-12-15T14:27:07.656Z,31.23
2022-12-15T14:29:35.782Z,33.13
2022-12-15T14:32:04.008Z,37.63
2022-12-15T14:34:33.498Z,39.67
2022-12-15T14:37:04.743Z,37.40
2022-12-15T14:39:37.170Z,36.47
2022-12-15T14:42:05.453Z,37.57
2022-12-15T14:44:38.011Z,38.57
2022-12-15T14:47:07.887Z,40.27
2022-12-15T14:49:39.896Z,43.60
2022-12-15T14:52:08.552Z,44.80
2022-12-15T14:54:38.839Z,47.70
2022-12-15T14:57:15.433Z,52.47
2022-12-15T14:59:44.763Z,48.20
2022-12-15T15:02:15.683Z,50.13
2022-12-15T15:03:12.193Z,30.20
2022-12-15T15:03:14.080Z,29.40
2022-12-15T15:04:43.922Z,51.27
2022-12-15T15:07:17.581Z,51.90
2022-12-15T15:09:47.239Z,51.60
2022-12-15T15:12:16.351Z,49.77
2022-12-15T15:14:45.977Z,48.10
2022-12-15T15:17:32.125Z,55.27
2022-12-15T15:20:01.632Z,49.73
2022-12-15T15:22:35.601Z,43.27
2022-12-15T15:25:20.093Z,53.30
2022-12-15T15:27:48.443Z,51.73
2022-12-15T15:30:21.456Z,49.87
2022-12-15T15:32:56.768Z,49.57
2022-12-15T15:35:26.470Z,50.93
2022-12-15T15:37:55.165Z,48.93
2022-12-15T15:40:24.622Z,52.47
2022-12-15T15:42:52.733Z,49.83
2022-12-15T15:45:20.943Z,50.03
2022-12-15T15:47:50.140Z,47.93
2022-12-15T15:50:19.887Z,48.80
2022-12-15T15:52:48.059Z,60.47
2022-12-15T15:55:17.005Z,58.33
2022-12-15T15:57:47.066Z,52.67
2022-12-15T16:00:20.449Z,54.70
2022-12-15T16:02:48.859Z,62.87
2022-12-15T16:05:17.295Z,62.97
2022-12-15T16:07:46.639Z,59.00
2022-12-15T16:10:16.186Z,51.33
2022-12-15T16:12:46.752Z,51.17
2022-12-15T16:15:16.720Z,49.80
2022-12-15T16:17:44.921Z,46.50
2022-12-15T16:20:13.864Z,45.57
2022-12-15T16:22:42.211Z,47.53
2022-12-15T16:25:17.618Z,46.13
2022-12-15T16:27:47.101Z,48.90
2022-12-15T16:30:20.119Z,55.73
2022-12-15T16:32:48.190Z,59.00
2022-12-15T16:35:16.569Z,60.30
2022-12-15T16:37:47.049Z,63.03
2022-12-15T16:40:17.464Z,59.03
2022-12-15T16:42:52.473Z,58.07
2022-12-15T16:45:20.894Z,58.70
2022-12-15T16:47:49.366Z,56.43
2022-12-15T16:50:21.045Z,51.57
2022-12-15T16:52:50.590Z,54.57
2022-12-15T16:55:20.456Z,46.40
2022-12-15T16:57:50.093Z,46.87
2022-12-15T17:00:20.685Z,47.63
2022-12-15T17:02:49.152Z,44.43
2022-12-15T17:05:17.748Z,46.67
2022-12-15T17:07:46.909Z,50.67
2022-12-15T17:10:19.419Z,51.03
2022-12-15T17:12:49.002Z,60.27
2022-12-15T17:15:21.853Z,58.73
2022-12-15T17:17:50.102Z,57.33
2022-12-15T17:20:29.199Z,56.30
2022-12-15T17:22:58.993Z,54.47
2022-12-15T17:26:00.852Z,57.00
2022-12-15T17:28:18.997Z,59.80
2022-12-15T17:30:47.227Z,58.93
2022-12-15T17:33:19.405Z,59.70
2022-12-15T17:35:48.014Z,62.50
2022-12-15T17:38:16.843Z,61.13
2022-12-15T17:40:45.035Z,63.80
2022-12-15T17:43:14.091Z,64.57
2022-12-15T17:45:43.873Z,65.87
2022-12-15T17:48:12.161Z,67.67
2022-12-15T17:50:40.289Z,68.03
2022-12-15T17:53:08.773Z,71.27
2022-12-15T17:55:36.947Z,73.47
2022-12-15T17:58:07.830Z,68.47
2022-12-15T18:00:36.299Z,72.87
2022-12-15T18:03:06.035Z,68.03
2022-12-15T18:05:34.367Z,70.40
2022-12-15T18:08:04.219Z,74.77
2022-12-15T18:10:33.909Z,73.53
2022-12-15T18:13:02.032Z,78.10
2022-12-15T18:15:31.268Z,74.40
2022-12-15T18:18:00.759Z,80.87
2022-12-15T18:20:31.118Z,76.87
2022-12-15T18:22:59.150Z,76.80
2022-12-15T18:25:28.368Z,79.27
2022-12-15T18:27:56.649Z,78.17
2022-12-15T18:30:26.383Z,79.03
2022-12-15T18:32:55.870Z,77.90
2022-12-15T18:35:34.897Z,78.90
2022-12-15T18:38:04.420Z,81.67
2022-12-15T18:40:32.518Z,83.17
2022-12-15T18:43:00.565Z,82.30
2022-12-15T18:45:28.841Z,81.67
2022-12-15T18:47:57.023Z,82.83
2022-12-15T18:50:26.635Z,84.33
2022-12-15T18:52:58.894Z,81.43
2022-12-15T18:55:30.099Z,82.20
2022-12-15T18:57:58.932Z,79.90
2022-12-15T19:00:28.290Z,83.50
2022-12-15T19:02:57.450Z,83.47
2022-12-15T19:05:29.533Z,80.53
2022-12-15T19:07:59.405Z,81.00
2022-12-15T19:10:30.991Z,84.77
2022-12-15T19:12:59.251Z,86.27
2022-12-15T19:15:27.488Z,82.17
2022-12-15T19:18:13.291Z,75.40
2022-12-15T19:20:58.965Z,75.83
2022-12-15T19:23:27.340Z,68.50
2022-12-15T19:25:56.922Z,69.03
2022-12-15T19:28:25.148Z,66.03
2022-12-15T19:30:53.398Z,65.17
2022-12-15T19:33:21.589Z,65.67
2022-12-15T19:35:51.543Z,63.93
2022-12-15T19:38:24.373Z,65.47
2022-12-15T19:40:54.559Z,67.10
2022-12-15T19:43:24.420Z,64.90
2022-12-15T19:45:53.118Z,65.50
2022-12-15T19:48:23.788Z,61.30
2022-12-15T19:50:54.562Z,62.03
2022-12-15T19:53:25.772Z,60.87
2022-12-15T19:55:54.624Z,59.93
2022-12-15T19:58:28.154Z,61.17
2022-12-15T20:00:57.373Z,60.77
2022-12-15T20:03:25.731Z,63.17
2022-12-15T20:05:54.404Z,61.10
2022-12-15T20:08:24.404Z,60.73
2022-12-15T20:10:53.982Z,59.33
2022-12-15T20:13:22.241Z,58.80
2022-12-15T20:15:51.797Z,61.67
2022-12-15T20:18:20.197Z,61.17
2022-12-15T20:20:48.939Z,61.50
2022-12-15T20:23:18.536Z,59.83
2022-12-15T20:25:47.445Z,63.60
2022-12-15T20:28:18.228Z,66.77
2022-12-15T20:30:46.486Z,64.83
2022-12-15T20:33:16.064Z,63.27
2022-12-15T20:35:44.406Z,62.87
2022-12-15T20:38:27.899Z,65.63
2022-12-15T20:40:56.339Z,62.47
2022-12-15T20:43:24.721Z,66.33
2022-12-15T20:45:58.591Z,64.23
2022-12-15T20:48:28.368Z,66.40
2022-12-15T20:50:56.669Z,61.77
2022-12-15T20:53:25.834Z,58.23
2022-12-15T20:55:54.790Z,62.37
2022-12-15T20:58:24.238Z,58.93
2022-12-15T21:00:55.498Z,61.63
2022-12-15T21:03:25.579Z,66.10
2022-12-15T21:05:55.944Z,69.43
2022-12-15T21:08:25.446Z,72.27
2022-12-15T21:10:53.940Z,68.77
2022-12-15T21:13:24.064Z,66.00
2022-12-15T21:15:52.474Z,71.17
2022-12-15T21:19:03.568Z,72.03
2022-12-15T21:21:16.766Z,69.03
2022-12-15T21:23:44.885Z,62.83
2022-12-15T21:26:13.097Z,64.03
2022-12-15T21:28:41.428Z,62.63
2022-12-15T21:31:10.177Z,64.63
2022-12-15T21:33:38.580Z,60.93
2022-12-15T21:36:07.335Z,60.63
2022-12-15T21:38:38.855Z,60.33
2022-12-15T21:41:08.020Z,61.70
2022-12-15T21:43:36.678Z,61.70
2022-12-15T21:46:11.753Z,59.20
2022-12-15T21:48:57.472Z,62.70
2022-12-15T21:51:25.667Z,64.70
2022-12-15T21:53:55.173Z,59.77
2022-12-15T21:56:23.293Z,59.00
2022-12-15T21:58:52.805Z,64.00
2022-12-15T22:01:24.521Z,62.27
2022-12-15T22:03:54.710Z,63.47
2022-12-15T22:06:23.603Z,60.63
2022-12-15T22:08:52.591Z,60.90
2022-12-15T22:11:24.428Z,60.03
2022-12-15T22:13:53.176Z,61.67
2022-12-15T22:16:23.573Z,61.47
2022-12-15T22:18:52.891Z,57.43
2022-12-15T22:21:23.090Z,56.33
2022-12-15T22:23:51.213Z,58.70
2022-12-15T22:26:24.094Z,59.13
2022-12-15T22:28:52.249Z,58.07
2022-12-15T22:31:20.359Z,56.53
2022-12-15T22:33:48.464Z,56.13
2022-12-15T22:36:16.575Z,57.67
2022-12-15T22:38:45.362Z,55.73
2022-12-15T22:41:16.426Z,57.70
2022-12-15T22:43:46.323Z,55.27
2022-12-15T22:46:15.125Z,55.10
2022-12-15T22:48:43.763Z,54.40
2022-12-15T22:51:13.577Z,55.10
2022-12-15T22:53:41.803Z,53.20
2022-12-15T22:56:23.440Z,51.60
2022-12-15T22:58:55.423Z,55.77
2022-12-15T23:01:23.586Z,56.20
2022-12-15T23:03:52.238Z,55.27
2022-12-15T23:06:20.401Z,53.13
2022-12-15T23:08:55.877Z,54.20
2022-12-15T23:11:38.800Z,53.77
2022-12-15T23:14:09.315Z,51.93
2022-12-15T23:16:36.582Z,51.03
2022-12-15T23:19:04.886Z,53.17
2022-12-15T23:21:33.458Z,50.80
2022-12-15T23:24:01.531Z,51.00
2022-12-15T23:26:29.731Z,48.17
2022-12-15T23:28:57.866Z,48.37
2022-12-15T23:31:27.606Z,47.63
2022-12-15T23:33:55.832Z,46.90
2022-12-15T23:36:23.911Z,44.43
2022-12-15T23:38:55.039Z,46.43
2022-12-15T23:41:23.231Z,45.47
2022-12-15T23:43:51.417Z,44.93
2022-12-15T23:46:20.071Z,43.70
2022-12-15T23:48:49.579Z,43.40
2022-12-15T23:51:20.688Z,43.77
2022-12-15T23:53:48.932Z,42.87
2022-12-15T23:56:18.118Z,41.57
2022-12-15T23:58:46.595Z,42.00
